createdAt,value
2018-09-28T00:01:40.113Z,15.90
2018-09-28T00:04:09.969Z,15.90
2018-09-28T00:06:39.590Z,15.90
2018-09-28T00:09:10.328Z,15.90
2018-09-28T00:11:40.594Z,15.90
2018-09-28T00:14:10.029Z,15.90
2018-09-28T00:16:40.075Z,15.90
2018-09-28T00:19:09.758Z,15.90
2018-09-28T00:21:40.699Z,15.90
2018-09-28T00:24:10.944Z,15.90
2018-09-28T00:26:41.433Z,15.80
2018-09-28T00:29:10.992Z,15.80
2018-09-28T00:31:40.144Z,15.80
2018-09-28T00:34:09.870Z,15.80
2018-09-28T00:36:39.058Z,15.70
2018-09-28T00:39:08.784Z,15.70
2018-09-28T00:41:38.196Z,15.60
2018-09-28T00:44:08.274Z,15.60
2018-09-28T00:46:37.650Z,15.60
2018-09-28T00:49:07.162Z,15.50
2018-09-28T00:51:36.881Z,15.50
2018-09-28T00:54:07.655Z,15.50
2018-09-28T00:56:36.761Z,15.40
2018-09-28T00:59:06.161Z,15.40
2018-09-28T01:01:36.076Z,15.40
2018-09-28T01:04:05.265Z,15.30
2018-09-28T01:06:34.373Z,15.30
2018-09-28T01:09:06.245Z,15.30
2018-09-28T01:11:35.328Z,15.20
2018-09-28T01:14:04.778Z,15.20
2018-09-28T01:16:34.200Z,15.10
2018-09-28T01:19:03.368Z,15.10
2018-09-28T01:21:32.407Z,15.10
2018-09-28T01:24:01.962Z,15.10
2018-09-28T01:26:31.091Z,15.00
2018-09-28T01:29:00.282Z,15.00
2018-09-28T01:31:29.896Z,15.00
2018-09-28T01:33:59.457Z,15.00
2018-09-28T01:36:28.756Z,14.90
2018-09-28T01:38:58.125Z,14.90
2018-09-28T01:41:27.863Z,14.90
2018-09-28T01:43:57.426Z,14.90
2018-09-28T01:46:26.917Z,14.90
2018-09-28T01:48:56.749Z,14.80
2018-09-28T01:51:26.003Z,14.80
2018-09-28T01:53:55.259Z,14.80
2018-09-28T01:56:24.498Z,14.80
2018-09-28T01:58:53.679Z,14.80
2018-09-28T02:01:23.054Z,14.80
2018-09-28T02:03:52.444Z,14.80
2018-09-28T02:06:21.523Z,14.80
2018-09-28T02:08:51.611Z,14.80
2018-09-28T02:11:20.842Z,14.80
2018-09-28T02:13:49.864Z,14.90
2018-09-28T02:16:19.364Z,14.90
2018-09-28T02:18:48.448Z,14.90
2018-09-28T02:21:17.799Z,14.90
2018-09-28T02:23:46.798Z,14.90
2018-09-28T02:26:15.910Z,14.90
2018-09-28T02:28:45.250Z,14.90
2018-09-28T02:31:15.266Z,14.90
2018-09-28T02:33:44.900Z,14.90
2018-09-28T02:36:14.587Z,14.90
2018-09-28T02:38:43.939Z,14.80
2018-09-28T02:41:13.483Z,14.80
2018-09-28T02:43:42.535Z,14.80
2018-09-28T02:46:12.144Z,14.80
2018-09-28T02:48:42.367Z,14.80
2018-09-28T02:51:11.873Z,14.80
2018-09-28T02:53:41.419Z,14.80
2018-09-28T02:56:11.577Z,14.80
2018-09-28T02:58:41.282Z,14.80
2018-09-28T03:01:10.517Z,14.80
2018-09-28T03:03:40.796Z,14.80
2018-09-28T03:06:10.034Z,14.80
2018-09-28T03:08:41.182Z,14.70
2018-09-28T03:11:10.382Z,14.70
2018-09-28T03:13:39.856Z,14.70
2018-09-28T03:16:09.705Z,14.70
2018-09-28T03:18:39.468Z,14.70
2018-09-28T03:21:11.454Z,14.60
2018-09-28T03:23:41.187Z,14.50
2018-09-28T03:26:11.969Z,14.50
2018-09-28T03:28:42.101Z,14.50
2018-09-28T03:31:12.179Z,14.50
2018-09-28T03:33:42.829Z,14.40
2018-09-28T03:36:12.648Z,14.50
2018-09-28T03:38:42.283Z,14.50
2018-09-28T03:41:12.400Z,14.50
2018-09-28T03:43:41.532Z,14.60
2018-09-28T03:46:12.001Z,14.50
2018-09-28T03:48:42.158Z,14.40
2018-09-28T03:51:12.162Z,14.30
2018-09-28T03:53:41.190Z,14.30
2018-09-28T03:56:10.618Z,14.20
2018-09-28T03:58:40.628Z,14.10
2018-09-28T04:01:09.768Z,14.10
2018-09-28T04:03:38.862Z,14.10
2018-09-28T04:06:08.028Z,14.10
2018-09-28T04:08:37.764Z,14.10
2018-09-28T04:11:08.524Z,14.10
2018-09-28T04:13:37.907Z,14.10
2018-09-28T04:16:09.174Z,14.00
2018-09-28T04:18:38.337Z,14.00
2018-09-28T04:21:08.127Z,14.00
2018-09-28T04:23:37.811Z,14.00
2018-09-28T04:26:06.836Z,14.00
2018-09-28T04:28:36.469Z,14.00
2018-09-28T04:31:06.229Z,14.00
2018-09-28T04:33:36.439Z,14.00
2018-09-28T04:36:06.343Z,14.00
2018-09-28T04:38:36.781Z,14.00
2018-09-28T04:41:06.335Z,13.90
2018-09-28T04:43:35.575Z,13.90
2018-09-28T04:46:04.957Z,13.90
2018-09-28T04:48:34.695Z,13.90
2018-09-28T04:51:06.323Z,13.90
2018-09-28T04:53:35.492Z,13.90
2018-09-28T04:56:04.870Z,14.00
2018-09-28T04:58:34.100Z,14.00
2018-09-28T05:01:03.413Z,14.10
2018-09-28T05:03:32.912Z,14.10
2018-09-28T05:06:02.756Z,14.10
2018-09-28T05:08:32.489Z,14.10
2018-09-28T05:11:01.853Z,14.00
2018-09-28T05:13:31.165Z,14.00
2018-09-28T05:16:00.475Z,14.10
2018-09-28T05:18:29.895Z,14.30
2018-09-28T05:20:59.544Z,14.40
2018-09-28T05:23:29.025Z,14.60
2018-09-28T05:25:58.956Z,14.80
2018-09-28T05:28:28.833Z,14.90
2018-09-28T05:30:58.064Z,15.00
2018-09-28T05:33:27.450Z,15.20
2018-09-28T05:35:56.710Z,15.40
2018-09-28T05:38:25.918Z,15.40
2018-09-28T05:40:55.350Z,15.50
2018-09-28T05:43:24.772Z,15.60
2018-09-28T05:45:53.854Z,15.70
2018-09-28T05:48:22.880Z,15.90
2018-09-28T05:50:51.880Z,16.00
2018-09-28T05:53:21.104Z,16.10
2018-09-28T05:55:50.568Z,16.10
2018-09-28T05:58:25.072Z,16.00
2018-09-28T06:00:59.996Z,16.00
2018-09-28T06:03:29.132Z,16.00
2018-09-28T06:06:02.616Z,16.00
2018-09-28T06:08:32.596Z,16.20
2018-09-28T06:11:01.745Z,16.30
2018-09-28T06:13:31.308Z,16.30
2018-09-28T06:16:00.341Z,16.30
2018-09-28T06:18:29.398Z,16.30
2018-09-28T06:20:58.701Z,16.40
2018-09-28T06:23:28.129Z,16.40
2018-09-28T06:25:57.913Z,16.50
2018-09-28T06:28:27.445Z,16.60
2018-09-28T06:30:56.507Z,16.70
2018-09-28T06:33:25.896Z,16.80
2018-09-28T06:35:55.831Z,16.70
2018-09-28T06:38:25.030Z,16.70
2018-09-28T06:40:54.147Z,16.80
2018-09-28T06:43:23.380Z,16.60
2018-09-28T06:45:52.432Z,16.70
2018-09-28T06:48:22.076Z,16.70
2018-09-28T06:50:51.455Z,16.70
2018-09-28T06:53:20.878Z,16.60
2018-09-28T06:55:50.584Z,16.90
2018-09-28T06:58:19.802Z,17.10
2018-09-28T07:00:49.297Z,17.60
2018-09-28T07:03:18.570Z,19.30
2018-09-28T07:05:48.023Z,19.70
2018-09-28T07:08:18.949Z,19.40
2018-09-28T07:10:48.383Z,17.80
2018-09-28T07:13:17.683Z,17.40
2018-09-28T07:15:47.343Z,17.50
2018-09-28T07:18:16.823Z,18.40
2018-09-28T07:20:46.417Z,19.60
2018-09-28T07:23:15.514Z,19.50
2018-09-28T07:25:44.811Z,19.50
2018-09-28T07:28:14.220Z,20.30
2018-09-28T07:30:43.810Z,21.60
2018-09-28T07:33:12.962Z,21.30
2018-09-28T07:35:42.084Z,20.80
2018-09-28T07:38:11.222Z,20.90
2018-09-28T07:40:40.562Z,21.10
2018-09-28T07:43:10.164Z,20.80
2018-09-28T07:45:39.780Z,21.30
2018-09-28T07:48:08.889Z,22.20
2018-09-28T07:50:38.089Z,23.00
2018-09-28T07:53:07.582Z,23.80
2018-09-28T07:55:37.478Z,23.40
2018-09-28T07:58:07.454Z,24.30
2018-09-28T08:00:36.978Z,24.90
2018-09-28T08:03:07.602Z,24.50
2018-09-28T08:05:38.766Z,23.80
2018-09-28T08:08:08.510Z,23.60
2018-09-28T08:10:40.626Z,23.10
2018-09-28T08:13:10.319Z,23.90
2018-09-28T08:15:39.754Z,25.90
2018-09-28T08:18:09.259Z,24.40
2018-09-28T08:20:39.218Z,23.90
2018-09-28T08:23:08.805Z,23.00
2018-09-28T08:25:38.595Z,23.30
2018-09-28T08:28:08.070Z,23.40
2018-09-28T08:30:37.340Z,24.70
2018-09-28T08:33:06.845Z,26.00
2018-09-28T08:35:36.428Z,26.20
2018-09-28T08:38:05.931Z,26.50
2018-09-28T08:40:36.475Z,26.40
2018-09-28T08:43:06.703Z,26.40
2018-09-28T08:45:37.221Z,26.20
2018-09-28T08:48:07.665Z,26.20
2018-09-28T08:50:38.275Z,25.10
2018-09-28T08:53:07.807Z,23.40
2018-09-28T08:55:45.179Z,22.10
2018-09-28T08:58:14.738Z,20.90
2018-09-28T09:00:44.060Z,20.90
2018-09-28T09:03:13.240Z,20.50
2018-09-28T09:05:42.860Z,20.50
2018-09-28T09:08:12.644Z,20.80
2018-09-28T09:10:45.787Z,20.40
2018-09-28T09:13:15.441Z,20.00
2018-09-28T09:15:44.900Z,19.90
2018-09-28T09:18:14.182Z,20.30
2018-09-28T09:20:43.744Z,20.40
2018-09-28T09:23:13.226Z,20.30
2018-09-28T09:25:42.559Z,19.70
2018-09-28T09:28:12.117Z,19.90
2018-09-28T09:30:41.835Z,19.70
2018-09-28T09:33:11.239Z,19.60
2018-09-28T09:35:41.345Z,19.90
2018-09-28T09:38:10.974Z,19.80
2018-09-28T09:40:40.679Z,19.70
2018-09-28T09:43:10.148Z,19.60
2018-09-28T09:45:40.413Z,19.50
2018-09-28T09:48:09.911Z,19.30
2018-09-28T09:50:38.966Z,19.80
2018-09-28T09:53:08.351Z,19.70
2018-09-28T09:55:37.756Z,19.10
2018-09-28T09:58:07.162Z,19.30
2018-09-28T10:00:41.887Z,19.20
2018-09-28T10:03:16.364Z,18.80
2018-09-28T10:05:45.767Z,18.40
2018-09-28T10:08:15.288Z,18.50
2018-09-28T10:10:45.487Z,18.80
2018-09-28T10:13:15.665Z,18.90
2018-09-28T10:15:45.119Z,19.00
2018-09-28T10:18:14.476Z,18.70
2018-09-28T10:20:43.603Z,18.60
2018-09-28T10:23:12.701Z,18.50
2018-09-28T10:25:42.111Z,18.60
2018-09-28T10:28:12.007Z,18.70
2018-09-28T10:33:02.718Z,18.80
2018-09-28T10:35:31.911Z,18.80
2018-09-28T10:38:01.584Z,18.90
2018-09-28T10:40:30.945Z,19.10
2018-09-28T10:43:00.513Z,18.70
2018-09-28T10:45:30.329Z,19.00
2018-09-28T10:47:59.817Z,19.10
2018-09-28T10:50:29.440Z,19.30
2018-09-28T10:52:58.789Z,18.90
2018-09-28T10:55:28.645Z,19.30
2018-09-28T10:57:58.194Z,19.20
2018-09-28T11:00:28.037Z,19.10
2018-09-28T11:02:57.496Z,19.30
2018-09-28T11:05:30.137Z,19.50
2018-09-28T11:07:59.744Z,19.50
2018-09-28T11:10:29.367Z,19.50
2018-09-28T11:12:58.690Z,19.70
2018-09-28T11:15:27.976Z,19.70
2018-09-28T11:17:57.445Z,19.70
2018-09-28T11:20:27.259Z,19.50
2018-09-28T11:22:56.563Z,19.00
2018-09-28T11:25:26.530Z,19.10
2018-09-28T11:27:56.070Z,19.00
2018-09-28T11:30:26.770Z,18.50
2018-09-28T11:32:55.941Z,18.50
2018-09-28T11:35:25.898Z,18.50
2018-09-28T11:37:54.988Z,18.60
2018-09-28T11:40:24.314Z,18.60
2018-09-28T11:42:53.672Z,18.30
2018-09-28T11:45:23.046Z,18.30
2018-09-28T11:47:52.225Z,18.20
2018-09-28T11:50:21.541Z,18.60
2018-09-28T11:52:51.283Z,18.90
2018-09-28T11:55:20.288Z,18.70
2018-09-28T11:57:52.793Z,18.70
2018-09-28T12:00:22.192Z,18.70
2018-09-28T12:02:53.548Z,18.90
2018-09-28T12:05:22.575Z,18.90
2018-09-28T12:07:51.866Z,19.10
2018-09-28T12:10:21.243Z,19.20
2018-09-28T12:12:50.875Z,18.90
2018-09-28T12:15:20.988Z,19.30
2018-09-28T12:17:50.183Z,19.20
2018-09-28T12:20:19.844Z,18.60
2018-09-28T12:22:48.911Z,18.40
2018-09-28T12:25:18.050Z,18.30
2018-09-28T12:27:47.108Z,18.50
2018-09-28T12:30:16.440Z,18.80
2018-09-28T12:32:45.725Z,18.90
2018-09-28T12:35:14.890Z,18.70
2018-09-28T12:37:44.126Z,18.50
2018-09-28T12:40:13.649Z,18.40
2018-09-28T12:42:42.905Z,18.40
2018-09-28T12:45:12.469Z,18.30
2018-09-28T12:47:42.915Z,18.20
2018-09-28T12:50:12.406Z,18.30
2018-09-28T12:52:42.313Z,18.40
2018-09-28T12:55:12.344Z,18.40
2018-09-28T12:57:41.476Z,18.40
2018-09-28T13:00:11.305Z,18.50
2018-09-28T13:02:40.866Z,18.50
2018-09-28T13:05:10.372Z,18.60
2018-09-28T13:07:40.040Z,18.70
2018-09-28T13:10:09.498Z,18.70
2018-09-28T13:12:38.662Z,18.70
2018-09-28T13:15:07.914Z,18.60
2018-09-28T13:17:37.114Z,18.50
2018-09-28T13:20:05.901Z,18.30
2018-09-28T13:22:34.939Z,18.40
2018-09-28T13:25:04.609Z,18.50
2018-09-28T13:27:33.734Z,18.50
2018-09-28T13:30:03.100Z,18.20
2018-09-28T13:32:32.170Z,18.20
2018-09-28T13:35:01.332Z,18.20
2018-09-28T13:37:30.658Z,18.40
2018-09-28T13:39:59.648Z,18.40
2018-09-28T13:42:28.824Z,18.30
2018-09-28T13:44:58.323Z,18.00
2018-09-28T13:47:28.553Z,17.80
2018-09-28T13:49:57.947Z,17.70
2018-09-28T13:52:29.091Z,17.70
2018-09-28T13:54:59.150Z,17.80
2018-09-28T13:57:29.292Z,17.70
2018-09-28T13:59:59.154Z,17.60
2018-09-28T14:02:29.512Z,17.60
2018-09-28T14:04:58.976Z,17.60
2018-09-28T14:07:28.160Z,17.70
2018-09-28T14:09:57.282Z,17.80
2018-09-28T14:12:26.869Z,17.80
2018-09-28T14:14:56.660Z,17.70
2018-09-28T14:17:26.399Z,17.40
2018-09-28T14:19:56.734Z,17.50
2018-09-28T14:22:26.496Z,17.50
2018-09-28T14:24:56.506Z,17.60
2018-09-28T14:27:26.500Z,17.50
2018-09-28T14:29:56.825Z,17.60
2018-09-28T14:32:26.557Z,17.60
2018-09-28T14:34:56.031Z,17.90
2018-09-28T14:37:25.537Z,17.90
2018-09-28T14:39:55.011Z,17.80
2018-09-28T14:42:24.132Z,17.50
2018-09-28T14:44:53.326Z,17.50
2018-09-28T14:47:23.077Z,17.40
2018-09-28T14:49:52.552Z,17.20
2018-09-28T14:52:21.665Z,17.10
2018-09-28T14:54:50.935Z,17.00
2018-09-28T14:57:20.145Z,17.10
2018-09-28T14:59:49.590Z,17.30
2018-09-28T15:02:19.025Z,17.40
2018-09-28T15:04:48.268Z,17.50
2018-09-28T15:07:17.619Z,17.70
2018-09-28T15:09:46.802Z,17.60
2018-09-28T15:12:16.071Z,17.50
2018-09-28T15:14:45.339Z,17.30
2018-09-28T15:17:14.718Z,17.30
2018-09-28T15:19:44.048Z,17.40
2018-09-28T15:22:13.790Z,17.30
2018-09-28T15:24:43.322Z,17.50
2018-09-28T15:27:12.746Z,17.50
2018-09-28T15:29:42.176Z,17.40
2018-09-28T15:32:11.749Z,17.00
2018-09-28T15:34:41.773Z,17.00
2018-09-28T15:37:11.071Z,17.20
2018-09-28T15:39:40.545Z,17.40
2018-09-28T15:42:09.908Z,17.10
2018-09-28T15:44:40.764Z,17.10
2018-09-28T15:47:10.058Z,17.20
2018-09-28T15:49:40.359Z,17.10
2018-09-28T15:52:09.726Z,17.20
2018-09-28T15:54:39.055Z,17.30
2018-09-28T15:57:08.130Z,17.30
2018-09-28T15:59:37.209Z,17.20
2018-09-28T16:02:06.941Z,16.90
2018-09-28T16:04:36.050Z,16.90
2018-09-28T16:07:05.075Z,16.80
2018-09-28T16:09:34.098Z,17.00
2018-09-28T16:12:03.173Z,16.90
2018-09-28T16:14:33.057Z,17.00
2018-09-28T16:17:02.586Z,17.00
2018-09-28T16:19:31.674Z,17.10
2018-09-28T16:22:00.856Z,17.00
2018-09-28T16:24:29.693Z,17.00
2018-09-28T16:26:59.167Z,16.80
2018-09-28T16:29:28.539Z,16.70
2018-09-28T16:31:57.749Z,16.70
2018-09-28T16:34:27.214Z,16.70
2018-09-28T16:36:56.223Z,16.20
2018-09-28T16:39:25.529Z,15.80
2018-09-28T16:41:55.115Z,15.30
2018-09-28T16:44:24.583Z,15.10
2018-09-28T16:46:54.058Z,14.80
2018-09-28T16:49:23.473Z,14.70
2018-09-28T16:51:52.691Z,14.70
2018-09-28T16:54:22.377Z,14.50
2018-09-28T16:56:51.746Z,14.50
2018-09-28T16:59:21.889Z,14.40
2018-09-28T17:01:51.068Z,14.30
2018-09-28T17:04:20.288Z,14.20
2018-09-28T17:06:49.754Z,14.10
2018-09-28T17:09:19.271Z,14.00
2018-09-28T17:11:48.793Z,14.00
2018-09-28T17:14:17.915Z,13.90
2018-09-28T17:16:47.260Z,13.90
2018-09-28T17:19:16.367Z,13.80
2018-09-28T17:21:45.461Z,13.70
2018-09-28T17:24:15.628Z,13.70
2018-09-28T17:26:44.708Z,13.60
2018-09-28T17:29:13.719Z,13.60
2018-09-28T17:31:43.171Z,13.60
2018-09-28T17:34:12.230Z,13.50
2018-09-28T17:36:41.362Z,13.60
2018-09-28T17:39:12.119Z,13.50
2018-09-28T17:41:41.240Z,13.50
2018-09-28T17:44:10.550Z,13.40
2018-09-28T17:46:40.468Z,13.40
2018-09-28T17:49:09.643Z,13.40
2018-09-28T17:51:38.783Z,13.40
2018-09-28T17:54:07.907Z,13.50
2018-09-28T17:56:37.591Z,13.50
2018-09-28T17:59:07.139Z,13.40
2018-09-28T18:01:36.338Z,13.30
2018-09-28T18:04:05.949Z,13.30
2018-09-28T18:06:36.197Z,13.30
2018-09-28T18:09:08.466Z,13.20
2018-09-28T18:11:38.215Z,13.20
2018-09-28T18:14:08.184Z,13.10
2018-09-28T18:16:38.498Z,13.10
2018-09-28T18:19:09.125Z,13.10
2018-09-28T18:21:38.614Z,13.10
2018-09-28T18:24:08.335Z,13.00
2018-09-28T18:26:38.159Z,13.00
2018-09-28T18:29:07.582Z,12.90
2018-09-28T18:31:38.299Z,12.90
2018-09-28T18:34:10.944Z,12.90
2018-09-28T18:36:40.556Z,12.90
2018-09-28T18:39:10.779Z,12.80
2018-09-28T18:41:40.387Z,12.80
2018-09-28T18:44:10.323Z,12.70
2018-09-28T18:46:39.607Z,12.70
2018-09-28T18:49:09.193Z,12.80
2018-09-28T18:51:39.242Z,12.70
2018-09-28T18:54:10.042Z,12.70
2018-09-28T18:56:39.939Z,12.60
2018-09-28T18:59:09.380Z,12.60
2018-09-28T19:01:39.867Z,12.60
2018-09-28T19:04:11.032Z,12.60
2018-09-28T19:06:47.178Z,12.50
2018-09-28T19:09:16.793Z,12.60
2018-09-28T19:11:46.917Z,12.50
2018-09-28T19:14:16.625Z,12.50
2018-09-28T19:16:46.788Z,12.50
2018-09-28T19:19:16.730Z,12.50
2018-09-28T19:21:46.582Z,12.50
2018-09-28T19:24:16.306Z,12.40
2018-09-28T19:26:46.062Z,12.40
2018-09-28T19:29:15.889Z,12.40
2018-09-28T19:31:46.383Z,12.40
2018-09-28T19:34:16.465Z,12.40
2018-09-28T19:36:46.616Z,12.40
2018-09-28T19:39:16.398Z,12.40
2018-09-28T19:41:46.008Z,12.30
2018-09-28T19:44:15.545Z,12.30
2018-09-28T19:46:46.149Z,12.30
2018-09-28T19:49:16.147Z,12.20
2018-09-28T19:51:46.039Z,12.30
2018-09-28T19:54:15.687Z,12.30
2018-09-28T19:56:45.324Z,12.30
2018-09-28T19:59:14.763Z,12.30
2018-09-28T20:01:44.649Z,12.20
2018-09-28T20:04:14.407Z,12.30
2018-09-28T20:06:44.062Z,12.40
2018-09-28T20:09:13.850Z,12.30
2018-09-28T20:11:43.886Z,12.20
2018-09-28T20:14:14.040Z,12.20
2018-09-28T20:16:43.669Z,12.20
2018-09-28T20:19:13.426Z,12.20
2018-09-28T20:21:43.085Z,12.20
2018-09-28T20:24:12.618Z,12.20
2018-09-28T20:26:42.351Z,12.20
2018-09-28T20:29:11.927Z,12.20
2018-09-28T20:31:41.406Z,12.10
2018-09-28T20:34:10.773Z,12.10
2018-09-28T20:36:40.091Z,12.10
2018-09-28T20:39:11.482Z,12.00
2018-09-28T20:41:41.370Z,12.00
2018-09-28T20:44:14.695Z,11.90
2018-09-28T20:46:44.278Z,11.80
2018-09-28T20:49:14.859Z,11.80
2018-09-28T20:51:44.775Z,11.80
2018-09-28T20:54:14.320Z,11.80
2018-09-28T20:56:44.277Z,11.70
2018-09-28T20:59:13.591Z,11.70
2018-09-28T21:01:44.716Z,11.70
2018-09-28T21:04:14.195Z,11.60
2018-09-28T21:06:43.720Z,11.60
2018-09-28T21:09:13.114Z,11.70
2018-09-28T21:11:43.727Z,11.70
2018-09-28T21:14:13.122Z,11.90
2018-09-28T21:16:42.638Z,11.90
2018-09-28T21:19:12.234Z,11.90
2018-09-28T21:21:41.546Z,11.90
2018-09-28T21:24:10.858Z,11.80
2018-09-28T21:26:40.282Z,11.70
2018-09-28T21:29:09.807Z,11.70
2018-09-28T21:31:39.167Z,11.60
2018-09-28T21:34:09.581Z,11.60
2018-09-28T21:36:39.035Z,11.60
2018-09-28T21:39:09.956Z,11.50
2018-09-28T21:41:39.922Z,11.40
2018-09-28T21:44:09.695Z,11.40
2018-09-28T21:46:39.364Z,11.40
2018-09-28T21:49:08.716Z,11.40
2018-09-28T21:51:38.021Z,11.30
2018-09-28T21:54:07.419Z,11.40
2018-09-28T21:56:36.581Z,11.30
2018-09-28T21:59:07.487Z,11.30
2018-09-28T22:01:36.742Z,11.30
2018-09-28T22:04:05.856Z,11.30
2018-09-28T22:06:35.794Z,11.20
2018-09-28T22:09:06.044Z,11.20
2018-09-28T22:11:35.810Z,11.20
2018-09-28T22:14:05.669Z,11.10
2018-09-28T22:16:34.833Z,11.20
2018-09-28T22:19:04.537Z,11.20
2018-09-28T22:21:33.607Z,11.20
2018-09-28T22:24:03.384Z,11.10
2018-09-28T22:26:32.694Z,11.10
2018-09-28T22:29:01.997Z,11.10
2018-09-28T22:31:31.339Z,11.10
2018-09-28T22:34:00.685Z,11.10
2018-09-28T22:36:30.433Z,11.30
2018-09-28T22:38:59.497Z,11.30
2018-09-28T22:41:28.495Z,11.20
2018-09-28T22:43:57.839Z,11.20
2018-09-28T22:46:26.882Z,11.20
2018-09-28T22:48:55.929Z,11.10
2018-09-28T22:51:25.265Z,11.10
2018-09-28T22:53:54.380Z,11.10
2018-09-28T22:56:24.180Z,11.00
2018-09-28T22:58:53.246Z,11.00
2018-09-28T23:01:22.430Z,11.00
2018-09-28T23:03:51.771Z,11.00
2018-09-28T23:06:21.068Z,10.90
2018-09-28T23:08:51.777Z,11.00
2018-09-28T23:11:21.183Z,11.10
2018-09-28T23:13:50.472Z,11.10
2018-09-28T23:16:20.305Z,11.00
2018-09-28T23:18:49.496Z,11.00
2018-09-28T23:21:18.470Z,11.00
2018-09-28T23:23:47.777Z,10.90
2018-09-28T23:26:16.753Z,10.90
2018-09-28T23:28:45.913Z,10.90
2018-09-28T23:31:15.563Z,10.90
2018-09-28T23:33:44.853Z,10.90
2018-09-28T23:36:13.857Z,10.90
2018-09-28T23:38:42.851Z,10.90
2018-09-28T23:41:12.293Z,10.80
2018-09-28T23:43:41.347Z,10.80
2018-09-28T23:46:10.415Z,10.80
2018-09-28T23:48:39.766Z,10.80
2018-09-28T23:51:08.756Z,10.80
2018-09-28T23:53:37.795Z,10.70
2018-09-28T23:56:07.788Z,10.70
2018-09-28T23:58:36.654Z,10.70
